sensor_id;sensor_type;location;lat;lon;timestamp;pressure;altitude;pressure_sealevel;temperature;humidity
77027;BME280;65956;52.986;17.490;2023-05-07T00:00:10;101064.62;;;6.39;84.54
77027;BME280;65956;52.986;17.490;2023-05-07T00:02:56;101063.77;;;6.36;84.66
77027;BME280;65956;52.986;17.490;2023-05-07T00:05:23;101067.84;;;6.33;84.72
77027;BME280;65956;52.986;17.490;2023-05-07T00:07:49;101074.03;;;6.30;84.65
77027;BME280;65956;52.986;17.490;2023-05-07T00:10:15;101076.11;;;6.27;84.95
77027;BME280;65956;52.986;17.490;2023-05-07T00:12:40;101074.31;;;6.25;84.85
77027;BME280;65956;52.986;17.490;2023-05-07T00:15:07;101077.99;;;6.22;84.96
77027;BME280;65956;52.986;17.490;2023-05-07T00:17:33;101077.98;;;6.19;84.80
77027;BME280;65956;52.986;17.490;2023-05-07T00:19:59;101080.13;;;6.15;85.02
77027;BME280;65956;52.986;17.490;2023-05-07T00:22:25;101078.64;;;6.12;85.05
77027;BME280;65956;52.986;17.490;2023-05-07T00:24:51;101082.28;;;6.09;85.02
77027;BME280;65956;52.986;17.490;2023-05-07T00:27:17;101086.27;;;6.07;84.99
77027;BME280;65956;52.986;17.490;2023-05-07T00:29:43;101083.15;;;6.04;84.80
77027;BME280;65956;52.986;17.490;2023-05-07T00:32:09;101083.40;;;6.03;84.82
77027;BME280;65956;52.986;17.490;2023-05-07T00:34:35;101082.10;;;6.02;84.71
77027;BME280;65956;52.986;17.490;2023-05-07T00:37:01;101085.41;;;6.02;84.73
77027;BME280;65956;52.986;17.490;2023-05-07T00:39:27;101081.67;;;6.01;84.76
77027;BME280;65956;52.986;17.490;2023-05-07T00:41:53;101082.34;;;6.00;84.87
77027;BME280;65956;52.986;17.490;2023-05-07T00:44:19;101080.31;;;5.99;85.06
77027;BME280;65956;52.986;17.490;2023-05-07T00:46:45;101083.91;;;5.97;85.01
77027;BME280;65956;52.986;17.490;2023-05-07T00:49:14;101081.99;;;5.95;85.13
77027;BME280;65956;52.986;17.490;2023-05-07T00:51:40;101083.27;;;5.92;85.09
77027;BME280;65956;52.986;17.490;2023-05-07T00:54:07;101086.58;;;5.88;85.07
77027;BME280;65956;52.986;17.490;2023-05-07T00:56:34;101090.02;;;5.85;85.29
77027;BME280;65956;52.986;17.490;2023-05-07T00:59:02;101089.03;;;5.81;85.24
77027;BME280;65956;52.986;17.490;2023-05-07T01:01:29;101089.10;;;5.76;85.12
77027;BME280;65956;52.986;17.490;2023-05-07T01:03:55;101087.95;;;5.70;85.24
77027;BME280;65956;52.986;17.490;2023-05-07T01:06:24;101094.51;;;5.65;85.30
77027;BME280;65956;52.986;17.490;2023-05-07T01:08:52;101099.50;;;5.61;85.61
77027;BME280;65956;52.986;17.490;2023-05-07T01:11:19;101100.84;;;5.56;85.43
77027;BME280;65956;52.986;17.490;2023-05-07T01:13:46;101101.41;;;5.50;85.55
77027;BME280;65956;52.986;17.490;2023-05-07T01:16:13;101109.17;;;5.45;85.70
77027;BME280;65956;52.986;17.490;2023-05-07T01:18:39;101105.56;;;5.39;85.56
77027;BME280;65956;52.986;17.490;2023-05-07T01:21:07;101111.61;;;5.34;85.53
77027;BME280;65956;52.986;17.490;2023-05-07T01:23:37;101106.88;;;5.30;85.49
77027;BME280;65956;52.986;17.490;2023-05-07T01:26:04;101109.49;;;5.25;85.71
77027;BME280;65956;52.986;17.490;2023-05-07T01:28:30;101108.93;;;5.19;85.81
77027;BME280;65956;52.986;17.490;2023-05-07T01:31:02;101111.58;;;5.14;85.66
77027;BME280;65956;52.986;17.490;2023-05-07T01:33:33;101110.27;;;5.08;85.87
77027;BME280;65956;52.986;17.490;2023-05-07T01:36:01;101107.52;;;5.02;85.96
77027;BME280;65956;52.986;17.490;2023-05-07T01:38:29;101111.71;;;4.98;85.85
77027;BME280;65956;52.986;17.490;2023-05-07T01:40:57;101111.41;;;4.92;86.11
77027;BME280;65956;52.986;17.490;2023-05-07T01:43:23;101109.23;;;4.87;85.98
77027;BME280;65956;52.986;17.490;2023-05-07T01:45:50;101113.98;;;4.83;86.21
77027;BME280;65956;52.986;17.490;2023-05-07T01:48:17;101118.60;;;4.79;86.05
77027;BME280;65956;52.986;17.490;2023-05-07T01:50:44;101119.41;;;4.75;86.14
77027;BME280;65956;52.986;17.490;2023-05-07T01:53:10;101121.45;;;4.73;86.40
77027;BME280;65956;52.986;17.490;2023-05-07T01:55:36;101125.01;;;4.72;86.19
77027;BME280;65956;52.986;17.490;2023-05-07T01:58:04;101124.61;;;4.72;86.25
77027;BME280;65956;52.986;17.490;2023-05-07T02:00:30;101128.23;;;4.74;86.11
77027;BME280;65956;52.986;17.490;2023-05-07T02:02:56;101124.02;;;4.74;85.93
77027;BME280;65956;52.986;17.490;2023-05-07T02:05:27;101129.67;;;4.74;85.94
77027;BME280;65956;52.986;17.490;2023-05-07T02:07:58;101125.44;;;4.73;85.92
77027;BME280;65956;52.986;17.490;2023-05-07T02:10:26;101126.90;;;4.71;85.82
77027;BME280;65956;52.986;17.490;2023-05-07T02:12:52;101132.08;;;4.70;85.78
77027;BME280;65956;52.986;17.490;2023-05-07T02:15:18;101133.06;;;4.68;85.81
77027;BME280;65956;52.986;17.490;2023-05-07T02:17:59;101130.73;;;4.66;85.70
77027;BME280;65956;52.986;17.490;2023-05-07T02:20:25;101130.05;;;4.65;85.88
77027;BME280;65956;52.986;17.490;2023-05-07T02:22:51;101130.42;;;4.63;85.91
77027;BME280;65956;52.986;17.490;2023-05-07T02:25:17;101130.11;;;4.60;85.69
77027;BME280;65956;52.986;17.490;2023-05-07T02:27:43;101128.23;;;4.58;85.87
77027;BME280;65956;52.986;17.490;2023-05-07T02:30:10;101131.77;;;4.55;85.79
77027;BME280;65956;52.986;17.490;2023-05-07T02:32:37;101132.45;;;4.53;86.00
77027;BME280;65956;52.986;17.490;2023-05-07T02:35:03;101129.42;;;4.51;86.07
77027;BME280;65956;52.986;17.490;2023-05-07T02:37:29;101132.25;;;4.48;86.11
77027;BME280;65956;52.986;17.490;2023-05-07T02:39:55;101132.20;;;4.46;86.33
77027;BME280;65956;52.986;17.490;2023-05-07T02:42:21;101132.44;;;4.43;86.35
77027;BME280;65956;52.986;17.490;2023-05-07T02:44:47;101137.17;;;4.40;86.28
77027;BME280;65956;52.986;17.490;2023-05-07T02:47:14;101140.73;;;4.37;86.26
77027;BME280;65956;52.986;17.490;2023-05-07T02:49:41;101143.81;;;4.35;86.44
77027;BME280;65956;52.986;17.490;2023-05-07T02:52:07;101144.63;;;4.34;86.53
77027;BME280;65956;52.986;17.490;2023-05-07T02:54:33;101147.26;;;4.34;86.56
77027;BME280;65956;52.986;17.490;2023-05-07T02:56:59;101147.59;;;4.36;86.57
77027;BME280;65956;52.986;17.490;2023-05-07T02:59:26;101146.74;;;4.40;86.38
77027;BME280;65956;52.986;17.490;2023-05-07T03:01:53;101139.63;;;4.40;86.50
77027;BME280;65956;52.986;17.490;2023-05-07T03:04:19;101141.38;;;4.45;86.40
77027;BME280;65956;52.986;17.490;2023-05-07T03:06:45;101143.27;;;4.47;86.55
77027;BME280;65956;52.986;17.490;2023-05-07T03:09:11;101143.60;;;4.48;86.54
77027;BME280;65956;52.986;17.490;2023-05-07T03:11:37;101147.00;;;4.50;86.50
77027;BME280;65956;52.986;17.490;2023-05-07T03:14:03;101144.64;;;4.49;86.34
77027;BME280;65956;52.986;17.490;2023-05-07T03:16:29;101146.57;;;4.48;86.13
77027;BME280;65956;52.986;17.490;2023-05-07T03:18:55;101142.25;;;4.45;86.04
77027;BME280;65956;52.986;17.490;2023-05-07T03:21:20;101148.30;;;4.42;85.99
77027;BME280;65956;52.986;17.490;2023-05-07T03:23:46;101150.06;;;4.39;86.00
77027;BME280;65956;52.986;17.490;2023-05-07T03:26:12;101150.42;;;4.39;86.12
77027;BME280;65956;52.986;17.490;2023-05-07T03:28:38;101151.89;;;4.39;85.97
77027;BME280;65956;52.986;17.490;2023-05-07T03:31:07;101158.58;;;4.41;86.11
77027;BME280;65956;52.986;17.490;2023-05-07T03:33:33;101161.63;;;4.43;86.01
77027;BME280;65956;52.986;17.490;2023-05-07T03:36:01;101161.98;;;4.44;85.76
77027;BME280;65956;52.986;17.490;2023-05-07T03:38:27;101165.38;;;4.45;85.67
77027;BME280;65956;52.986;17.490;2023-05-07T03:40:54;101168.61;;;4.48;85.77
77027;BME280;65956;52.986;17.490;2023-05-07T03:43:20;101165.36;;;4.51;85.80
77027;BME280;65956;52.986;17.490;2023-05-07T03:45:50;101166.66;;;4.54;85.78
77027;BME280;65956;52.986;17.490;2023-05-07T03:48:19;101172.86;;;4.59;85.78
77027;BME280;65956;52.986;17.490;2023-05-07T03:50:46;101174.97;;;4.63;85.72
77027;BME280;65956;52.986;17.490;2023-05-07T03:53:14;101178.84;;;4.65;85.47
77027;BME280;65956;52.986;17.490;2023-05-07T03:55:40;101178.52;;;4.70;85.48
77027;BME280;65956;52.986;17.490;2023-05-07T03:58:06;101181.52;;;4.73;85.43
77027;BME280;65956;52.986;17.490;2023-05-07T04:00:32;101182.60;;;4.77;85.17
77027;BME280;65956;52.986;17.490;2023-05-07T04:03:06;101183.69;;;4.79;85.14
77027;BME280;65956;52.986;17.490;2023-05-07T04:05:32;101184.48;;;4.84;85.08
77027;BME280;65956;52.986;17.490;2023-05-07T04:08:01;101187.92;;;4.87;85.00
77027;BME280;65956;52.986;17.490;2023-05-07T04:10:34;101188.79;;;4.90;84.89
77027;BME280;65956;52.986;17.490;2023-05-07T04:13:03;101191.47;;;4.93;85.03
77027;BME280;65956;52.986;17.490;2023-05-07T04:15:29;101192.04;;;4.96;84.86
77027;BME280;65956;52.986;17.490;2023-05-07T04:17:56;101196.27;;;5.00;84.82
77027;BME280;65956;52.986;17.490;2023-05-07T04:20:22;101200.46;;;5.03;84.50
77027;BME280;65956;52.986;17.490;2023-05-07T04:22:54;101197.80;;;5.07;84.49
77027;BME280;65956;52.986;17.490;2023-05-07T04:25:21;101200.35;;;5.12;84.41
77027;BME280;65956;52.986;17.490;2023-05-07T04:27:48;101204.23;;;5.17;84.34
77027;BME280;65956;52.986;17.490;2023-05-07T04:30:15;101205.23;;;5.22;84.19
77027;BME280;65956;52.986;17.490;2023-05-07T04:32:41;101210.30;;;5.27;84.38
77027;BME280;65956;52.986;17.490;2023-05-07T04:35:07;101215.92;;;5.32;84.15
77027;BME280;65956;52.986;17.490;2023-05-07T04:37:33;101220.66;;;5.34;84.07
77027;BME280;65956;52.986;17.490;2023-05-07T04:39:59;101225.67;;;5.38;84.02
77027;BME280;65956;52.986;17.490;2023-05-07T04:42:26;101229.75;;;5.42;83.86
77027;BME280;65956;52.986;17.490;2023-05-07T04:44:53;101231.85;;;5.46;83.84
77027;BME280;65956;52.986;17.490;2023-05-07T04:47:20;101240.12;;;5.52;83.90
77027;BME280;65956;52.986;17.490;2023-05-07T04:49:46;101242.34;;;5.58;83.94
77027;BME280;65956;52.986;17.490;2023-05-07T04:52:12;101243.51;;;5.64;84.22
77027;BME280;65956;52.986;17.490;2023-05-07T04:54:38;101248.63;;;5.71;84.13
77027;BME280;65956;52.986;17.490;2023-05-07T04:57:05;101248.17;;;5.78;84.06
77027;BME280;65956;52.986;17.490;2023-05-07T04:59:32;101247.58;;;5.86;84.30
77027;BME280;65956;52.986;17.490;2023-05-07T05:01:58;101246.89;;;5.94;84.09
77027;BME280;65956;52.986;17.490;2023-05-07T05:04:24;101250.02;;;6.01;84.21
77027;BME280;65956;52.986;17.490;2023-05-07T05:06:50;101257.07;;;6.09;84.09
77027;BME280;65956;52.986;17.490;2023-05-07T05:09:17;101255.09;;;6.19;84.10
77027;BME280;65956;52.986;17.490;2023-05-07T05:11:44;101254.84;;;6.28;83.95
77027;BME280;65956;52.986;17.490;2023-05-07T05:14:10;101258.60;;;6.35;83.27
77027;BME280;65956;52.986;17.490;2023-05-07T05:16:36;101259.64;;;6.44;83.31
77027;BME280;65956;52.986;17.490;2023-05-07T05:19:02;101259.82;;;6.52;83.11
77027;BME280;65956;52.986;17.490;2023-05-07T05:21:31;101264.04;;;6.61;82.77
77027;BME280;65956;52.986;17.490;2023-05-07T05:24:00;101262.95;;;6.68;82.25
77027;BME280;65956;52.986;17.490;2023-05-07T05:26:26;101264.96;;;6.77;82.36
77027;BME280;65956;52.986;17.490;2023-05-07T05:28:52;101264.05;;;6.88;82.41
77027;BME280;65956;52.986;17.490;2023-05-07T05:31:20;101267.29;;;6.96;82.00
77027;BME280;65956;52.986;17.490;2023-05-07T05:33:46;101269.34;;;7.03;81.61
77027;BME280;65956;52.986;17.490;2023-05-07T05:36:12;101270.63;;;7.09;81.25
77027;BME280;65956;52.986;17.490;2023-05-07T05:38:39;101277.86;;;7.17;81.20
77027;BME280;65956;52.986;17.490;2023-05-07T05:41:06;101281.88;;;7.23;80.77
77027;BME280;65956;52.986;17.490;2023-05-07T05:43:32;101281.48;;;7.31;80.61
77027;BME280;65956;52.986;17.490;2023-05-07T05:45:58;101281.45;;;7.39;80.65
77027;BME280;65956;52.986;17.490;2023-05-07T05:48:24;101283.71;;;7.47;80.44
77027;BME280;65956;52.986;17.490;2023-05-07T05:50:51;101280.09;;;7.56;80.46
77027;BME280;65956;52.986;17.490;2023-05-07T05:53:17;101275.19;;;7.63;79.69
77027;BME280;65956;52.986;17.490;2023-05-07T05:55:44;101275.27;;;7.70;79.62
77027;BME280;65956;52.986;17.490;2023-05-07T05:58:11;101277.08;;;7.77;79.43
77027;BME280;65956;52.986;17.490;2023-05-07T06:00:40;101279.77;;;7.85;79.06
77027;BME280;65956;52.986;17.490;2023-05-07T06:03:06;101282.98;;;7.93;79.40
77027;BME280;65956;52.986;17.490;2023-05-07T06:05:33;101283.21;;;8.02;79.15
77027;BME280;65956;52.986;17.490;2023-05-07T06:07:59;101281.81;;;8.08;78.53
77027;BME280;65956;52.986;17.490;2023-05-07T06:10:26;101285.55;;;8.14;78.26
77027;BME280;65956;52.986;17.490;2023-05-07T06:12:53;101287.73;;;8.20;78.36
77027;BME280;65956;52.986;17.490;2023-05-07T06:15:19;101285.90;;;8.26;78.41
77027;BME280;65956;52.986;17.490;2023-05-07T06:17:50;101285.71;;;8.32;77.66
77027;BME280;65956;52.986;17.490;2023-05-07T06:20:16;101285.61;;;8.39;77.38
77027;BME280;65956;52.986;17.490;2023-05-07T06:22:43;101289.23;;;8.50;77.68
77027;BME280;65956;52.986;17.490;2023-05-07T06:25:10;101289.08;;;8.58;77.18
77027;BME280;65956;52.986;17.490;2023-05-07T06:27:36;101281.71;;;8.66;77.10
77027;BME280;65956;52.986;17.490;2023-05-07T06:30:02;101287.88;;;8.73;77.05
77027;BME280;65956;52.986;17.490;2023-05-07T06:32:28;101290.57;;;8.83;76.85
77027;BME280;65956;52.986;17.490;2023-05-07T06:34:55;101291.00;;;8.92;76.17
77027;BME280;65956;52.986;17.490;2023-05-07T06:37:21;101295.75;;;9.00;76.18
77027;BME280;65956;52.986;17.490;2023-05-07T06:39:56;101295.39;;;9.09;76.33
77027;BME280;65956;52.986;17.490;2023-05-07T06:42:22;101298.16;;;9.19;76.35
77027;BME280;65956;52.986;17.490;2023-05-07T06:44:48;101297.04;;;9.23;75.86
77027;BME280;65956;52.986;17.490;2023-05-07T06:47:16;101299.80;;;9.31;76.23
77027;BME280;65956;52.986;17.490;2023-05-07T06:49:43;101304.12;;;9.43;75.57
77027;BME280;65956;52.986;17.490;2023-05-07T06:52:11;101303.02;;;9.51;74.63
77027;BME280;65956;52.986;17.490;2023-05-07T06:54:37;101307.91;;;9.58;74.61
77027;BME280;65956;52.986;17.490;2023-05-07T06:57:04;101306.36;;;9.66;73.62
77027;BME280;65956;52.986;17.490;2023-05-07T06:59:30;101309.88;;;9.73;72.84
77027;BME280;65956;52.986;17.490;2023-05-07T07:01:56;101313.11;;;9.82;72.59
77027;BME280;65956;52.986;17.490;2023-05-07T07:04:22;101310.15;;;9.93;72.78
77027;BME280;65956;52.986;17.490;2023-05-07T07:06:54;101307.47;;;10.03;72.21
77027;BME280;65956;52.986;17.490;2023-05-07T07:09:20;101307.34;;;10.11;71.71
77027;BME280;65956;52.986;17.490;2023-05-07T07:11:46;101309.81;;;10.17;70.98
77027;BME280;65956;52.986;17.490;2023-05-07T07:14:12;101312.47;;;10.25;70.45
77027;BME280;65956;52.986;17.490;2023-05-07T07:16:44;101316.50;;;10.33;70.20
77027;BME280;65956;52.986;17.490;2023-05-07T07:19:10;101317.48;;;10.39;70.50
77027;BME280;65956;52.986;17.490;2023-05-07T07:21:36;101326.90;;;10.49;69.82
77027;BME280;65956;52.986;17.490;2023-05-07T07:24:02;101321.15;;;10.55;69.60
77027;BME280;65956;52.986;17.490;2023-05-07T07:26:28;101327.16;;;10.64;69.99
77027;BME280;65956;52.986;17.490;2023-05-07T07:28:54;101333.67;;;10.72;69.64
77027;BME280;65956;52.986;17.490;2023-05-07T07:31:20;101327.48;;;10.78;68.38
77027;BME280;65956;52.986;17.490;2023-05-07T07:33:47;101329.55;;;10.83;68.13
77027;BME280;65956;52.986;17.490;2023-05-07T07:36:13;101331.72;;;10.81;67.42
77027;BME280;65956;52.986;17.490;2023-05-07T07:38:39;101331.11;;;10.82;67.56
77027;BME280;65956;52.986;17.490;2023-05-07T07:41:08;101332.48;;;10.87;67.67
77027;BME280;65956;52.986;17.490;2023-05-07T07:43:34;101337.31;;;10.92;67.89
77027;BME280;65956;52.986;17.490;2023-05-07T07:46:02;101337.77;;;10.99;68.27
77027;BME280;65956;52.986;17.490;2023-05-07T07:48:28;101336.22;;;11.08;68.09
77027;BME280;65956;52.986;17.490;2023-05-07T07:50:55;101341.84;;;11.14;67.65
77027;BME280;65956;52.986;17.490;2023-05-07T07:53:22;101345.27;;;11.24;68.10
77027;BME280;65956;52.986;17.490;2023-05-07T07:55:48;101341.10;;;11.34;67.47
77027;BME280;65956;52.986;17.490;2023-05-07T07:58:16;101342.30;;;11.41;67.11
77027;BME280;65956;52.986;17.490;2023-05-07T08:00:42;101348.16;;;11.54;67.32
77027;BME280;65956;52.986;17.490;2023-05-07T08:03:09;101344.33;;;11.64;66.48
77027;BME280;65956;52.986;17.490;2023-05-07T08:05:37;101343.27;;;11.60;64.52
77027;BME280;65956;52.986;17.490;2023-05-07T08:08:04;101341.70;;;11.48;64.30
77027;BME280;65956;52.986;17.490;2023-05-07T08:10:32;101338.81;;;11.37;64.00
77027;BME280;65956;52.986;17.490;2023-05-07T08:13:03;101336.80;;;11.44;64.95
77027;BME280;65956;52.986;17.490;2023-05-07T08:15:30;101340.85;;;11.57;64.30
77027;BME280;65956;52.986;17.490;2023-05-07T08:17:57;101338.66;;;11.66;63.34
77027;BME280;65956;52.986;17.490;2023-05-07T08:20:26;101339.64;;;11.72;62.08
77027;BME280;65956;52.986;17.490;2023-05-07T08:22:52;101342.04;;;11.67;60.06
77027;BME280;65956;52.986;17.490;2023-05-07T08:25:18;101337.14;;;11.53;60.43
77027;BME280;65956;52.986;17.490;2023-05-07T08:27:44;101338.21;;;11.46;60.29
77027;BME280;65956;52.986;17.490;2023-05-07T08:30:12;101340.52;;;11.54;61.77
77027;BME280;65956;52.986;17.490;2023-05-07T08:32:38;101343.84;;;11.71;61.47
77027;BME280;65956;52.986;17.490;2023-05-07T08:35:04;101343.45;;;11.89;62.15
77027;BME280;65956;52.986;17.490;2023-05-07T08:37:30;101349.20;;;12.05;61.49
77027;BME280;65956;52.986;17.490;2023-05-07T08:39:57;101349.83;;;12.17;61.27
77027;BME280;65956;52.986;17.490;2023-05-07T08:42:26;101356.64;;;12.35;59.25
77027;BME280;65956;52.986;17.490;2023-05-07T08:44:57;101352.02;;;12.61;60.43
77027;BME280;65956;52.986;17.490;2023-05-07T08:47:29;101354.05;;;12.81;59.08
77027;BME280;65956;52.986;17.490;2023-05-07T08:50:00;101357.88;;;13.01;60.65
77027;BME280;65956;52.986;17.490;2023-05-07T08:52:27;101352.63;;;13.16;59.24
77027;BME280;65956;52.986;17.490;2023-05-07T08:54:53;101355.41;;;13.29;60.16
77027;BME280;65956;52.986;17.490;2023-05-07T08:57:20;101355.45;;;13.49;59.42
77027;BME280;65956;52.986;17.490;2023-05-07T08:59:47;101358.10;;;13.73;58.90
77027;BME280;65956;52.986;17.490;2023-05-07T09:02:14;101362.06;;;13.85;58.31
77027;BME280;65956;52.986;17.490;2023-05-07T09:04:40;101364.76;;;13.96;57.07
77027;BME280;65956;52.986;17.490;2023-05-07T09:07:07;101359.58;;;14.06;57.10
77027;BME280;65956;52.986;17.490;2023-05-07T09:09:37;101359.23;;;14.01;55.24
77027;BME280;65956;52.986;17.490;2023-05-07T09:12:03;101362.85;;;14.01;56.42
77027;BME280;65956;52.986;17.490;2023-05-07T09:14:31;101363.70;;;14.03;55.54
77027;BME280;65956;52.986;17.490;2023-05-07T09:16:58;101363.06;;;14.16;56.14
77027;BME280;65956;52.986;17.490;2023-05-07T09:19:25;101364.65;;;14.23;55.98
77027;BME280;65956;52.986;17.490;2023-05-07T09:22:02;101366.48;;;14.43;55.64
77027;BME280;65956;52.986;17.490;2023-05-07T09:24:31;101366.98;;;14.57;55.26
77027;BME280;65956;52.986;17.490;2023-05-07T09:27:01;101364.33;;;14.71;55.16
77027;BME280;65956;52.986;17.490;2023-05-07T09:29:29;101361.74;;;14.83;55.38
77027;BME280;65956;52.986;17.490;2023-05-07T09:31:56;101359.39;;;14.91;54.66
77027;BME280;65956;52.986;17.490;2023-05-07T09:34:22;101357.95;;;15.06;53.75
77027;BME280;65956;52.986;17.490;2023-05-07T09:36:48;101363.59;;;15.09;52.83
77027;BME280;65956;52.986;17.490;2023-05-07T09:39:15;101364.67;;;15.11;53.87
77027;BME280;65956;52.986;17.490;2023-05-07T09:41:46;101367.77;;;15.24;53.29
77027;BME280;65956;52.986;17.490;2023-05-07T09:44:18;101368.08;;;15.23;52.01
77027;BME280;65956;52.986;17.490;2023-05-07T09:46:53;101369.23;;;15.06;51.41
77027;BME280;65956;52.986;17.490;2023-05-07T09:49:23;101369.02;;;14.91;52.47
77027;BME280;65956;52.986;17.490;2023-05-07T09:51:59;101366.31;;;14.83;52.59
77027;BME280;65956;52.986;17.490;2023-05-07T09:54:26;101370.08;;;14.82;53.06
77027;BME280;65956;52.986;17.490;2023-05-07T09:56:55;101368.17;;;14.85;52.05
77027;BME280;65956;52.986;17.490;2023-05-07T09:59:24;101367.98;;;14.98;52.11
77027;BME280;65956;52.986;17.490;2023-05-07T10:01:52;101367.85;;;15.24;51.76
77027;BME280;65956;52.986;17.490;2023-05-07T10:04:19;101367.67;;;15.28;50.97
77027;BME280;65956;52.986;17.490;2023-05-07T10:06:47;101373.83;;;15.33;51.94
77027;BME280;65956;52.986;17.490;2023-05-07T10:09:14;101376.47;;;15.43;51.10
77027;BME280;65956;52.986;17.490;2023-05-07T10:11:41;101380.13;;;15.47;49.76
77027;BME280;65956;52.986;17.490;2023-05-07T10:14:07;101377.63;;;15.62;49.28
77027;BME280;65956;52.986;17.490;2023-05-07T10:16:35;101384.81;;;16.00;49.97
77027;BME280;65956;52.986;17.490;2023-05-07T10:19:04;101377.72;;;16.33;48.58
77027;BME280;65956;52.986;17.490;2023-05-07T10:21:36;101375.65;;;16.57;48.17
77027;BME280;65956;52.986;17.490;2023-05-07T10:24:09;101377.73;;;16.84;47.63
77027;BME280;65956;52.986;17.490;2023-05-07T10:26:40;101375.53;;;16.98;47.68
77027;BME280;65956;52.986;17.490;2023-05-07T10:29:25;101370.89;;;17.02;46.86
77027;BME280;65956;52.986;17.490;2023-05-07T10:34:44;101370.08;;;17.21;46.43
77027;BME280;65956;52.986;17.490;2023-05-07T10:37:12;101370.75;;;17.16;45.83
77027;BME280;65956;52.986;17.490;2023-05-07T10:39:40;101375.25;;;16.94;45.75
77027;BME280;65956;52.986;17.490;2023-05-07T10:42:13;101372.21;;;17.06;44.91
77027;BME280;65956;52.986;17.490;2023-05-07T10:44:43;101373.91;;;17.42;45.08
77027;BME280;65956;52.986;17.490;2023-05-07T10:47:15;101368.01;;;17.63;44.43
77027;BME280;65956;52.986;17.490;2023-05-07T10:52:21;101374.58;;;18.04;44.74
77027;BME280;65956;52.986;17.490;2023-05-07T10:58:26;101372.84;;;17.96;43.69
77027;BME280;65956;52.986;17.490;2023-05-07T11:00:57;101380.77;;;18.28;43.50
77027;BME280;65956;52.986;17.490;2023-05-07T11:03:27;101374.80;;;18.57;42.36
77027;BME280;65956;52.986;17.490;2023-05-07T11:06:12;101373.05;;;19.23;40.95
77027;BME280;65956;52.986;17.490;2023-05-07T11:08:59;101377.27;;;19.88;40.62
77027;BME280;65956;52.986;17.490;2023-05-07T11:14:53;101377.66;;;19.67;39.99
77027;BME280;65956;52.986;17.490;2023-05-07T11:17:28;101381.45;;;20.30;37.67
77027;BME280;65956;52.986;17.490;2023-05-07T11:20:02;101386.97;;;20.67;37.39
77027;BME280;65956;52.986;17.490;2023-05-07T11:22:37;101388.52;;;21.07;38.11
77027;BME280;65956;52.986;17.490;2023-05-07T11:25:18;101394.89;;;21.54;37.51
77027;BME280;65956;52.986;17.490;2023-05-07T11:27:52;101397.64;;;21.38;37.12
77027;BME280;65956;52.986;17.490;2023-05-07T11:30:18;101398.62;;;20.67;37.99
77027;BME280;65956;52.986;17.490;2023-05-07T11:32:47;101393.63;;;19.97;37.67
77027;BME280;65956;52.986;17.490;2023-05-07T11:35:15;101394.77;;;19.20;38.31
77027;BME280;65956;52.986;17.490;2023-05-07T11:37:44;101395.77;;;18.60;40.00
77027;BME280;65956;52.986;17.490;2023-05-07T11:40:12;101395.68;;;18.03;40.65
77027;BME280;65956;52.986;17.490;2023-05-07T11:42:40;101396.48;;;17.56;40.95
77027;BME280;65956;52.986;17.490;2023-05-07T11:45:09;101405.58;;;17.02;41.20
77027;BME280;65956;52.986;17.490;2023-05-07T11:47:35;101406.20;;;16.58;42.16
77027;BME280;65956;52.986;17.490;2023-05-07T11:50:06;101406.83;;;16.35;42.78
77027;BME280;65956;52.986;17.490;2023-05-07T11:52:33;101404.75;;;16.22;42.52
77027;BME280;65956;52.986;17.490;2023-05-07T11:55:01;101402.86;;;16.64;42.34
77027;BME280;65956;52.986;17.490;2023-05-07T11:57:27;101394.38;;;17.85;41.27
77027;BME280;65956;52.986;17.490;2023-05-07T11:59:55;101387.42;;;18.87;40.09
77027;BME280;65956;52.986;17.490;2023-05-07T12:02:22;101387.44;;;19.62;39.25
77027;BME280;65956;52.986;17.490;2023-05-07T12:04:48;101387.67;;;19.66;38.29
77027;BME280;65956;52.986;17.490;2023-05-07T12:07:14;101391.70;;;19.22;39.09
77027;BME280;65956;52.986;17.490;2023-05-07T12:09:41;101390.95;;;18.72;39.03
77027;BME280;65956;52.986;17.490;2023-05-07T12:12:07;101394.49;;;18.33;39.83
77027;BME280;65956;52.986;17.490;2023-05-07T12:14:44;101394.58;;;17.88;40.40
77027;BME280;65956;52.986;17.490;2023-05-07T12:17:11;101395.95;;;17.50;41.17
77027;BME280;65956;52.986;17.490;2023-05-07T12:19:38;101391.16;;;17.71;40.98
77027;BME280;65956;52.986;17.490;2023-05-07T12:22:07;101388.41;;;18.51;39.37
77027;BME280;65956;52.986;17.490;2023-05-07T12:24:59;101390.48;;;19.22;37.96
77027;BME280;65956;52.986;17.490;2023-05-07T12:27:25;101385.13;;;20.31;36.82
77027;BME280;65956;52.986;17.490;2023-05-07T12:29:51;101385.78;;;22.48;34.48
77027;BME280;65956;52.986;17.490;2023-05-07T12:32:20;101380.15;;;24.87;31.74
77027;BME280;65956;52.986;17.490;2023-05-07T12:34:50;101377.56;;;26.66;28.99
77027;BME280;65956;52.986;17.490;2023-05-07T12:37:23;101379.13;;;28.01;28.71
77027;BME280;65956;52.986;17.490;2023-05-07T12:40:05;101381.55;;;29.37;26.60
77027;BME280;65956;52.986;17.490;2023-05-07T12:42:36;101382.56;;;30.41;24.49
77027;BME280;65956;52.986;17.490;2023-05-07T12:45:13;101375.20;;;31.26;24.35
77027;BME280;65956;52.986;17.490;2023-05-07T12:47:50;101376.56;;;32.07;23.52
77027;BME280;65956;52.986;17.490;2023-05-07T12:50:16;101372.45;;;32.98;21.83
77027;BME280;65956;52.986;17.490;2023-05-07T12:52:47;101379.30;;;32.82;20.02
77027;BME280;65956;52.986;17.490;2023-05-07T12:55:14;101379.52;;;32.80;20.70
77027;BME280;65956;52.986;17.490;2023-05-07T12:57:43;101373.66;;;33.24;19.71
77027;BME280;65956;52.986;17.490;2023-05-07T13:00:09;101378.83;;;33.52;19.29